Time;durP1;ratioP1;P1;durP2;ratioP2;P2;SDS_P1;SDS_P2;PMS_P1;PMS_P2;Temp;Humidity;BMP_temperature;BMP_pressure;BME280_temperature;BME280_humidity;BME280_pressure;Samples;Min_cycle;Max_cycle;Signal;HPM_P1;HPM_P2
2023/10/14 00:03:06;;;;;;;16.80;7.50;;;;;;;-128.00;-1.00;-1.00;2;363125417;363125417;-34
2023/10/14 00:14:26;;;;;;;16.80;7.50;;;;;;;-128.00;-1.00;-1.00;4;7504822;579195691;-33
2023/10/14 00:23:37;;;;;;;16.80;7.50;;;;;;;-128.00;-1.00;-1.00;2;543179700;543179700;-33
2023/10/14 00:33:35;;;;;;;16.80;7.50;;;;;;;-128.00;-1.00;-1.00;2;588192971;588192971;-33
2023/10/14 00:41:08;;;;;;;16.80;7.50;;;;;;;-128.00;-1.00;-1.00;2;444150180;444150180;-34
2023/10/14 00:47:23;;;;;;;16.80;7.50;;;;;;;-128.00;-1.00;-1.00;2;363122372;363122372;-34
2023/10/14 00:58:47;;;;;;;16.80;7.50;;;;;;;-128.00;-1.00;-1.00;4;7505039;579196684;-37
2023/10/14 01:07:59;;;;;;;16.80;7.50;;;;;;;-128.00;-1.00;-1.00;2;543180874;543180874;-33
2023/10/14 01:17:55;;;;;;;16.80;7.50;;;;;;;-128.00;-1.00;-1.00;2;588194686;588194686;-33
2023/10/14 01:25:30;;;;;;;16.80;7.50;;;;;;;-128.00;-1.00;-1.00;2;444146609;444146609;-34
2023/10/14 01:32:05;;;;;;;16.80;7.50;;;;;;;-128.00;-1.00;-1.00;2;363123695;363123695;-34
2023/10/14 01:43:30;;;;;;;16.80;7.50;;;;;;;-128.00;-1.00;-1.00;4;7504908;579191857;-33
2023/10/14 02:34:04;;;;;;;15.90;6.20;;;;;;;;;;104493;1279;599923;-33
2023/10/14 02:36:29;;;;;;;14.20;6.40;;;;;;;;;;104709;1274;104687;-34
2023/10/14 02:38:56;;;;;;;14.00;6.20;;;;;;;;;;104676;1278;60334;-34
2023/10/14 02:41:21;;;;;;;17.30;6.60;;;;;;;;;;104891;1279;60266;-33
2023/10/14 02:43:50;;;;;;;11.80;6.20;;;;;;;;;;104944;1276;60183;-32
2023/10/14 02:46:21;;;;;;;13.20;6.50;;;;;;;;;;104731;1279;60033;-33
2023/10/14 02:48:53;;;;;;;12.40;6.30;;;;;;;;;;104825;1279;60622;-32
2023/10/14 02:51:29;;;;;;;12.60;6.20;;;;;;;;;;104694;1279;60527;-33
2023/10/14 02:53:56;;;;;;;;;;;;;;;;;;104727;1279;60257;-32
2023/10/14 02:56:32;;;;;;;16.50;6.90;;;;;;;;;;104744;1280;60149;-33
2023/10/14 02:58:57;;;;;;;16.20;7.70;;;;;;;;;;104824;1277;60797;-33
2023/10/14 03:01:31;;;;;;;13.70;6.50;;;;;;;;;;105135;1276;60750;-34
2023/10/14 03:03:56;;;;;;;17.30;7.70;;;;;;;;;;105017;1279;60745;-34
2023/10/14 03:06:22;;;;;;;16.80;7.20;;;;;;;;;;104649;1276;62428;-33
2023/10/14 03:08:57;;;;;;;12.70;6.90;;;;;;;;;;104621;1276;60871;-35
2023/10/14 03:11:25;;;;;;;17.90;7.60;;;;;;;;;;104632;1279;60770;-34
2023/10/14 03:13:51;;;;;;;15.00;7.40;;;;;;;;;;104777;1280;61171;-33
2023/10/14 03:16:17;;;;;;;17.40;7.30;;;;;;;;;;104785;1277;60811;-34
2023/10/14 03:18:44;;;;;;;16.10;8.00;;;;;;;;;;104690;1279;61558;-34
2023/10/14 03:21:09;;;;;;;18.30;7.70;;;;;;;;;;104839;1280;60865;-32
2023/10/14 03:23:35;;;;;;;17.80;8.00;;;;;;;;;;104870;1277;60737;-33
2023/10/14 03:28:44;;;;;;;16.80;7.40;;;;;;;;;;104641;1275;60917;-34
2023/10/14 03:31:14;;;;;;;16.50;7.20;;;;;;;;;;104790;1275;60812;-34
2023/10/14 03:33:43;;;;;;;21.10;8.80;;;;;;;;;;104494;1279;60878;-31
2023/10/14 03:36:09;;;;;;;15.10;8.00;;;;;;;;;;104825;1278;60757;-33
2023/10/14 03:41:03;;;;;;;20.20;8.90;;;;;;;;;;104664;1277;60869;-34
2023/10/14 03:43:29;;;;;;;22.80;8.70;;;;;;;;;;104628;1277;61238;-34
2023/10/14 03:46:04;;;;;;;20.80;9.10;;;;;;;;;;104723;1278;60879;-35
2023/10/14 03:48:35;;;;;;;13.10;8.50;;;;;;;;;;104716;1276;60783;-34
2023/10/14 03:51:04;;;;;;;23.70;9.20;;;;;;;;;;104783;1276;60651;-34
2023/10/14 03:53:32;;;;;;;15.70;9.20;;;;;;;;;;104588;1277;60778;-35
2023/10/14 03:55:59;;;;;;;28.20;9.80;;;;;;;;;;104684;1277;60710;-32
2023/10/14 03:58:24;;;;;;;18.50;9.10;;;;;;;;;;104706;1280;60844;-33
2023/10/14 04:00:52;;;;;;;21.80;9.40;;;;;;;;;;104610;1279;60847;-33
2023/10/14 04:03:38;;;;;;;19.50;10.20;;;;;;;;;;104720;1279;60875;-35
2023/10/14 04:06:02;;;;;;;16.60;8.90;;;;;;;;;;104633;1280;60795;-34
2023/10/14 04:08:31;;;;;;;16.10;9.40;;;;;;;;;;104879;1277;60874;-33
2023/10/14 04:11:12;;;;;;;21.10;9.60;;;;;;;;;;104686;1280;60862;-32
2023/10/14 04:13:40;;;;;;;17.40;9.80;;;;;;;;;;104687;1276;61238;-35
2023/10/14 04:16:07;;;;;;;18.30;9.50;;;;;;;;;;104701;1275;60706;-35
2023/10/14 04:18:33;;;;;;;27.60;10.30;;;;;;;;;;104721;1277;60861;-33
2023/10/14 04:21:13;;;;;;;20.50;9.90;;;;;;;;;;104698;1277;60705;-35
2023/10/14 04:23:59;;;;;;;19.00;10.40;;;;;;;;;;104782;1280;60751;-33
2023/10/14 04:26:24;;;;;;;15.90;9.70;;;;;;;;;;104619;1277;60745;-35
2023/10/14 04:28:58;;;;;;;22.10;11.10;;;;;;;;;;104669;1277;60798;-32
2023/10/14 04:31:39;;;;;;;16.90;9.70;;;;;;;;;;104612;1276;60910;-33
2023/10/14 04:34:07;;;;;;;17.00;10.60;;;;;;;;;;104629;1276;61633;-32
2023/10/14 04:36:37;;;;;;;18.90;10.30;;;;;;;;;;104667;1277;60750;-35
2023/10/14 04:39:13;;;;;;;21.40;10.20;;;;;;;;;;104859;1279;60770;-33
2023/10/14 04:41:47;;;;;;;20.70;10.50;;;;;;;;;;104752;1279;60162;-33
2023/10/14 04:44:12;;;;;;;18.70;10.60;;;;;;;;;;104704;1275;61175;-33
2023/10/14 04:49:29;;;;;;;21.60;11.00;;;;;;;;;;104768;1277;60818;-34
2023/10/14 04:51:58;;;;;;;21.80;11.30;;;;;;;;;;104605;1278;60725;-33
2023/10/14 04:54:25;;;;;;;21.80;10.80;;;;;;;;;;104500;1279;60792;-32
2023/10/14 04:56:51;;;;;;;17.30;9.90;;;;;;;;;;104920;1275;60709;-33
2023/10/14 04:59:24;;;;;;;21.40;10.90;;;;;;;;;;104684;1276;60894;-34
2023/10/14 05:01:50;;;;;;;22.80;10.90;;;;;;;;;;104632;1276;60962;-33
2023/10/14 05:04:20;;;;;;;20.80;10.40;;;;;;;;;;104663;1279;60808;-33
2023/10/14 05:06:52;;;;;;;22.00;11.50;;;;;;;;;;104726;1277;60683;-32
2023/10/14 05:12:00;;;;;;;23.30;11.20;;;;;;;;;;104737;1276;60085;-34
2023/10/14 05:19:54;;;;;;;18.30;10.70;;;;;;;;;;104580;1276;60670;-31
2023/10/14 05:22:23;;;;;;;17.10;9.70;;;;;;;;;;104601;1277;60683;-33
2023/10/14 05:24:49;;;;;;;22.20;11.30;;;;;;;;;;104641;1279;60930;-33
2023/10/14 05:27:17;;;;;;;19.70;11.60;;;;;;;;;;104700;1276;60863;-33
2023/10/14 05:29:43;;;;;;;18.80;10.40;;;;;;;;;;104758;1276;61151;-33
2023/10/14 05:32:15;;;;;;;20.60;10.30;;;;;;;;;;104663;1275;61571;-34
2023/10/14 05:34:42;;;;;;;27.20;10.90;;;;;;;;;;104547;1277;60776;-34
2023/10/14 05:37:11;;;;;;;22.00;10.70;;;;;;;;;;104614;1279;60814;-32
2023/10/14 05:39:37;;;;;;;17.70;10.60;;;;;;;;;;104586;1279;60795;-34
2023/10/14 05:42:16;;;;;;;17.00;10.50;;;;;;;;;;104748;1277;60771;-33
2023/10/14 05:44:47;;;;;;;16.80;10.30;;;;;;;;;;104642;1275;61173;-35
2023/10/14 05:47:15;;;;;;;18.70;10.50;;;;;;;;;;104660;1276;60850;-35
2023/10/14 05:49:42;;;;;;;18.00;10.80;;;;;;;;;;104612;1277;60869;-33
2023/10/14 05:52:08;;;;;;;24.00;11.30;;;;;;;;;;104617;1276;60871;-33
2023/10/14 05:54:34;;;;;;;21.80;11.30;;;;;;;;;;104841;1279;60779;-34
2023/10/14 05:57:00;;;;;;;19.30;10.40;;;;;;;;;;104722;1277;60747;-33
2023/10/14 05:59:25;;;;;;;25.80;10.80;;;;;;;;;;104608;1277;60890;-33
2023/10/14 06:01:51;;;;;;;18.90;10.70;;;;;;;;;;104590;1276;60845;-35
2023/10/14 06:04:17;;;;;;;19.40;10.00;;;;;;;;;;104623;1277;60879;-33
2023/10/14 06:06:42;;;;;;;26.20;10.70;;;;;;;;;;104692;1276;60781;-33
2023/10/14 06:09:08;;;;;;;16.50;10.30;;;;;;;;;;104803;1279;60878;-35
2023/10/14 06:11:34;;;;;;;20.30;10.60;;;;;;;;;;104665;1277;61292;-33
2023/10/14 06:14:02;;;;;;;17.00;10.30;;;;;;;;;;104657;1275;60876;-34
2023/10/14 06:16:28;;;;;;;25.80;11.20;;;;;;;;;;104780;1275;60798;-34
2023/10/14 06:18:53;;;;;;;19.70;10.00;;;;;;;;;;104723;1276;60874;-34
2023/10/14 06:21:19;;;;;;;21.20;10.00;;;;;;;;;;104553;1276;60890;-34
2023/10/14 06:23:47;;;;;;;15.40;10.20;;;;;;;;;;104575;1276;60863;-31
2023/10/14 06:26:17;;;;;;;18.20;9.60;;;;;;;;;;104664;1275;60926;-31
2023/10/14 06:28:46;;;;;;;17.80;9.50;;;;;;;;;;104664;1275;60796;-33
2023/10/14 06:31:12;;;;;;;17.90;9.30;;;;;;;;;;104659;1279;60758;-34
2023/10/14 06:33:40;;;;;;;17.20;9.70;;;;;;;;;;104544;1277;60837;-32
2023/10/14 06:36:07;;;;;;;16.40;8.70;;;;;;;;;;104624;1277;60817;-34
2023/10/14 06:38:33;;;;;;;16.00;9.40;;;;;;;;;;104679;1276;60705;-33
2023/10/14 06:41:01;;;;;;;15.10;9.00;;;;;;;;;;104595;1279;60757;-33
2023/10/14 06:43:27;;;;;;;18.60;9.00;;;;;;;;;;104740;1275;61571;-33
2023/10/14 06:45:53;;;;;;;16.90;8.80;;;;;;;;;;104606;1279;61519;-34
2023/10/14 06:48:18;;;;;;;14.10;8.70;;;;;;;;;;104743;1277;61616;-33
2023/10/14 06:50:47;;;;;;;13.50;8.60;;;;;;;;;;104603;1276;61695;-35
2023/10/14 06:53:14;;;;;;;20.00;8.70;;;;;;;;;;104652;1276;61547;-34
2023/10/14 06:55:40;;;;;;;19.70;8.60;;;;;;;;;;104783;1275;61933;-35
2023/10/14 06:58:09;;;;;;;13.90;7.90;;;;;;;;;;104648;1276;61687;-34
2023/10/14 07:00:37;;;;;;;17.30;8.50;;;;;;;;;;104669;1276;61704;-34
2023/10/14 07:03:03;;;;;;;17.20;7.80;;;;;;;;;;104604;1279;61911;-36
2023/10/14 07:05:28;;;;;;;16.20;8.60;;;;;;;;;;104741;1277;61698;-36
2023/10/14 07:07:55;;;;;;;19.20;7.80;;;;;;;;;;104648;1276;61714;-31
2023/10/14 07:10:27;;;;;;;16.00;8.00;;;;;;;;;;104583;1276;61630;-31
2023/10/14 07:12:54;;;;;;;14.90;8.30;;;;;;;;;;104720;1275;61557;-36
2023/10/14 07:15:20;;;;;;;16.10;7.30;;;;;;;;;;104443;1277;61692;-34
2023/10/14 07:17:48;;;;;;;12.80;7.30;;;;;;;;;;104659;1276;61730;-36
2023/10/14 07:20:13;;;;;;;19.30;8.10;;;;;;;;;;104796;1278;61595;-36
2023/10/14 07:22:42;;;;;;;16.10;7.10;;;;;;;;;;104659;1278;61778;-34
2023/10/14 07:25:10;;;;;;;14.00;7.40;;;;;;;;;;104782;1275;61993;-34
2023/10/14 07:27:38;;;;;;;11.80;7.10;;;;;;;;;;104644;1275;61602;-33
2023/10/14 07:32:46;;;;;;;13.60;7.80;;;;;;;;;;104549;1277;61608;-34
2023/10/14 07:35:14;;;;;;;12.10;7.60;;;;;;;;;;104616;1275;61587;-32
2023/10/14 07:37:48;;;;;;;12.30;7.50;;;;;;;;;;104744;1277;62040;-33
2023/10/14 07:45:42;;;;;;;13.90;7.70;;;;;;;;;;104774;1276;61553;-33
2023/10/14 07:48:11;;;;;;;14.50;7.30;;;;;;;;;;104595;1277;61503;-34
2023/10/14 07:50:36;;;;;;;15.70;7.90;;;;;;;;;;104601;1279;61701;-33
2023/10/14 07:53:07;;;;;;;;;;;;;;;;;;104592;1279;61628;-31
2023/10/14 07:55:35;;;;;;;18.00;8.10;;;;;;;;;;104636;1276;62101;-33
2023/10/14 07:58:00;;;;;;;12.90;8.10;;;;;;;;;;104633;1279;61588;-36
2023/10/14 08:00:37;;;;;;;13.90;8.70;;;;;;;;;;104553;1277;61685;-33
2023/10/14 08:03:06;;;;;;;15.20;7.90;;;;;;;;;;104631;1277;61583;-35
2023/10/14 08:05:33;;;;;;;14.70;8.10;;;;;;;;;;104637;1279;61665;-35
2023/10/14 08:08:05;;;;;;;14.60;9.30;;;;;;;;;;104624;1279;61575;-34
2023/10/14 08:10:31;;;;;;;16.80;8.70;;;;;;;;;;104536;1277;61941;-35
2023/10/14 08:12:57;;;;;;;15.80;8.90;;;;;;;;;;104624;1277;61684;-33
2023/10/14 08:15:22;;;;;;;15.70;9.40;;;;;;;;;;104572;1276;61576;-34
2023/10/14 08:17:48;;;;;;;;;;;;;;;;;;104633;1279;61692;-32
2023/10/14 08:20:14;;;;;;;21.70;8.80;;;;;;;;;;104696;1279;61684;-36
2023/10/14 08:22:40;;;;;;;19.20;9.30;;;;;;;;;;104561;1277;61703;-34
2023/10/14 08:25:06;;;;;;;;;;;;;;;;;;104686;1277;61629;-35
2023/10/14 08:27:33;;;;;;;17.60;9.00;;;;;;;;;;104584;1276;61669;-32
2023/10/14 08:30:00;;;;;;;18.50;9.60;;;;;;;;;;104563;1276;61587;-35
2023/10/14 08:32:26;;;;;;;16.50;9.30;;;;;;;;;;104593;1277;61752;-33
2023/10/14 08:34:51;;;;;;;20.70;11.30;;;;;;;;;;104683;1277;61682;-33
2023/10/14 08:37:16;;;;;;;21.00;10.50;;;;;;;;;;104632;1279;61691;-32
2023/10/14 08:39:44;;;;;;;17.70;10.60;;;;;;;;;;104637;1276;61583;-32
2023/10/14 08:42:09;;;;;;;18.40;9.70;;;;;;;;;;104571;1277;61871;-32
2023/10/14 08:44:35;;;;;;;;;;;;;;;;;;104576;1276;61697;-33
2023/10/14 08:47:00;;;;;;;14.70;9.60;;;;;;;;;;104603;1276;61710;-36
2023/10/14 08:49:28;;;;;;;17.00;11.00;;;;;;;;;;104630;1276;61706;-33
2023/10/14 08:52:09;;;;;;;17.00;11.00;;;;;;;;;;33170;1278;78027422;-35
2023/10/14 08:56:51;;;;;;;17.00;11.00;;;;;;;;;;2;282402451;282402451;-35
2023/10/14 09:04:46;;;;;;;17.00;11.00;;;;;;;;;;10769;1298;441151117;-34
2023/10/14 09:10:51;;;;;;;17.00;11.00;;;;;;;;;;3533;1298;360122794;-34
2023/10/14 09:21:58;;;;;;;17.00;11.00;;;;;;;;;;7169;1298;576199375;-34
2023/10/14 09:31:02;;;;;;;17.00;11.00;;;;;;;;;;3520;1298;538382941;-35
2023/10/14 09:41:04;;;;;;;17.00;11.00;;;;;;;;;;3107;1298;594196211;-34
2023/10/14 09:48:27;;;;;;;17.00;11.00;;;;;;;;;;1252;1298;441146836;-33
2023/10/14 09:52:19;;;;;;;17.00;11.00;;;;;;;;;;3472;1298;227331442;-36
2023/10/14 09:59:28;;;;;;;17.00;11.00;;;;;;;;;;14349;1279;399028657;-34
2023/10/14 10:06:59;;;;;;;17.00;11.00;;;;;;;;;;34927;1279;322301681;-35
2023/10/14 10:14:22;;;;;;;17.00;11.00;;;;;;;;;;7170;1298;433336276;-35
2023/10/14 10:18:22;;;;;;;15.90;6.90;;;;;;;;;;21705;1298;94204769;-35
2023/10/14 10:20:48;;;;;;;15.90;6.90;;;;;;;;;;2957;1298;141577757;-35
2023/10/14 10:23:14;;;;;;;15.40;7.40;;;;;;;;;;104679;1279;144715;-33
2023/10/14 10:25:47;;;;;;;18.00;8.70;;;;;;;;;;104573;1277;62063;-33
2023/10/14 10:28:28;;;;;;;16.20;8.50;;;;;;;;;;104703;1276;61656;-35
2023/10/14 10:31:09;;;;;;;18.60;8.70;;;;;;;;;;104586;1276;61630;-33
2023/10/14 10:33:50;;;;;;;19.70;8.30;;;;;;;;;;104627;1277;62146;-33
2023/10/14 10:36:22;;;;;;;12.70;8.20;;;;;;;;;;104628;1279;61627;-34
2023/10/14 10:38:47;;;;;;;15.20;8.50;;;;;;;;;;104585;1279;61650;-33
2023/10/14 10:41:17;;;;;;;14.70;7.70;;;;;;;;;;104726;1279;61702;-34
2023/10/14 10:43:45;;;;;;;15.60;8.00;;;;;;;;;;104722;1279;61582;-36
2023/10/14 10:46:27;;;;;;;12.50;7.00;;;;;;;;;;104719;1277;61576;-34
2023/10/14 10:48:52;;;;;;;13.90;7.80;;;;;;;;;;104708;1276;62025;-34
2023/10/14 10:51:17;;;;;;;15.20;7.80;;;;;;;;;;104635;1279;61694;-35
2023/10/14 10:53:42;;;;;;;10.70;7.20;;;;;;;;;;104598;1278;61620;-35
2023/10/14 10:56:09;;;;;;;16.60;7.60;;;;;;;;;;104667;1278;61785;-35
2023/10/14 10:58:34;;;;;;;11.40;7.80;;;;;;;;;;104666;1279;61525;-34
2023/10/14 11:01:01;;;;;;;13.70;9.00;;;;;;;;;;104625;1277;61700;-33
2023/10/14 11:03:26;;;;;;;11.40;7.30;;;;;;;;;;104720;1278;61985;-34
2023/10/14 11:05:53;;;;;;;13.50;8.10;;;;;;;;;;104643;1277;61688;-33
2023/10/14 11:08:18;;;;;;;13.40;8.00;;;;;;;;;;104660;1279;61563;-33
2023/10/14 11:10:44;;;;;;;13.80;8.00;;;;;;;;;;104623;1277;61710;-33
2023/10/14 11:13:11;;;;;;;15.10;7.40;;;;;;;;;;104625;1275;62114;-33
2023/10/14 11:15:36;;;;;;;12.20;7.20;;;;;;;;;;104674;1275;61615;-35
2023/10/14 11:18:02;;;;;;;12.80;7.10;;;;;;;;;;104648;1277;61663;-35
2023/10/14 11:20:28;;;;;;;10.00;6.40;;;;;;;;;;104586;1275;61630;-34
2023/10/14 11:22:57;;;;;;;10.00;6.40;;;;;;;;;;104653;1276;62157;-36
2023/10/14 11:25:22;;;;;;;10.20;5.90;;;;;;;;;;104676;1276;61632;-39
2023/10/14 11:27:48;;;;;;;12.70;6.40;;;;;;;;;;104648;1279;61696;-34
2023/10/14 11:30:13;;;;;;;;;;;;;;;;;;104644;1277;61700;-34
2023/10/14 11:32:48;;;;;;;9.40;5.70;;;;;;;;;;104579;1276;61716;-35
2023/10/14 11:35:17;;;;;;;13.40;6.20;;;;;;;;;;104798;1277;61580;-36
2023/10/14 11:37:51;;;;;;;11.60;6.90;;;;;;;;;;104670;1277;62009;-37
2023/10/14 11:40:17;;;;;;;13.10;6.50;;;;;;;;;;104629;1275;61673;-34
2023/10/14 11:42:42;;;;;;;10.10;6.60;;;;;;;;;;104617;1277;62136;-34
2023/10/14 11:45:08;;;;;;;13.30;6.40;;;;;;;;;;104646;1276;61677;-34
2023/10/14 11:47:37;;;;;;;13.20;6.10;;;;;;;;;;104737;1279;62139;-35
2023/10/14 11:50:11;;;;;;;9.00;6.30;;;;;;;;;;104651;1275;61519;-35
2023/10/14 11:52:42;;;;;;;11.30;6.20;;;;;;;;;;104726;1275;62067;-35
2023/10/14 11:55:11;;;;;;;9.30;6.80;;;;;;;;;;104685;1277;61694;-35
2023/10/14 11:57:37;;;;;;;14.60;6.60;;;;;;;;;;104600;1277;61550;-35
2023/10/14 12:00:02;;;;;;;;;;;;;;;;;;104646;1277;62142;-35
2023/10/14 12:02:27;;;;;;;10.80;6.80;;;;;;;;;;104678;1277;61719;-34
2023/10/14 12:04:53;;;;;;;14.40;6.60;;;;;;;;;;104911;1276;61668;-35
2023/10/14 12:07:18;;;;;;;15.60;6.40;;;;;;;;;;104684;1276;61691;-35
2023/10/14 12:09:47;;;;;;;10.70;6.20;;;;;;;;;;104646;1277;61684;-34
2023/10/14 12:12:12;;;;;;;12.20;6.50;;;;;;;;;;104779;1279;61691;-34
2023/10/14 12:14:37;;;;;;;17.10;6.80;;;;;;;;;;104697;1279;61614;-33
2023/10/14 12:17:04;;;;;;;17.50;6.80;;;;;;;;;;104710;1276;61681;-35
2023/10/14 12:19:30;;;;;;;9.00;5.70;;;;;;;;;;104657;1277;61696;-33
2023/10/14 12:21:55;;;;;;;9.90;5.90;;;;;;;;;;104686;1275;61678;-33
2023/10/14 12:24:20;;;;;;;10.90;6.20;;;;;;;;;;104841;1276;61611;-35
2023/10/14 12:26:46;;;;;;;12.20;6.10;;;;;;;;;;104913;1279;61707;-33
2023/10/14 12:29:11;;;;;;;9.70;5.90;;;;;;;;;;104749;1276;61575;-35
2023/10/14 12:31:43;;;;;;;13.70;6.20;;;;;;;;;;104919;1279;61697;-35
2023/10/14 12:34:09;;;;;;;18.60;5.60;;;;;;;;;;104771;1279;61563;-33
2023/10/14 12:36:34;;;;;;;11.90;4.40;;;;;;;;;;104679;1279;61676;-33
2023/10/14 12:39:07;;;;;;;6.70;3.70;;;;;;;;;;104845;1275;61621;-38
2023/10/14 12:41:33;;;;;;;5.80;3.00;;;;;;;;;;104813;1279;61572;-35
2023/10/14 12:44:00;;;;;;;14.30;3.00;;;;;;;;;;104717;1277;61585;-33
2023/10/14 12:46:33;;;;;;;9.50;3.40;;;;;;;;;;104775;1277;61989;-34
2023/10/14 12:49:02;;;;;;;4.30;2.30;;;;;;;;;;104760;1277;61598;-35
2023/10/14 12:51:30;;;;;;;7.70;3.50;;;;;;;;;;104670;1277;61684;-35
2023/10/14 12:53:57;;;;;;;6.30;3.30;;;;;;;;;;104494;1276;61698;-33
2023/10/14 12:56:23;;;;;;;7.00;3.00;;;;;;;;;;104954;1279;61690;-35
2023/10/14 12:58:48;;;;;;;6.30;2.50;;;;;;;;;;104888;1276;61685;-34
2023/10/14 13:01:17;;;;;;;7.90;2.30;;;;;;;;;;104639;1279;61697;-34
2023/10/14 13:03:46;;;;;;;13.10;2.60;;;;;;;;;;104620;1275;61618;-35
2023/10/14 13:06:12;;;;;;;5.90;2.10;;;;;;;;;;104642;1275;61572;-36
2023/10/14 13:08:38;;;;;;;6.20;1.90;;;;;;;;;;104729;1275;61668;-33
2023/10/14 13:11:03;;;;;;;4.30;1.90;;;;;;;;;;104802;1277;61621;-35
2023/10/14 13:13:28;;;;;;;2.40;1.40;;;;;;;;;;104705;1275;61665;-33
2023/10/14 13:15:54;;;;;;;4.90;1.80;;;;;;;;;;104662;1277;61695;-33
2023/10/14 13:18:19;;;;;;;3.40;1.60;;;;;;;;;;104686;1277;61671;-35
2023/10/14 13:20:45;;;;;;;3.80;1.60;;;;;;;;;;104651;1277;61492;-33
2023/10/14 13:23:12;;;;;;;4.20;1.50;;;;;;;;;;104666;1275;61700;-34
2023/10/14 13:25:37;;;;;;;4.70;2.20;;;;;;;;;;104738;1276;61583;-33
2023/10/14 13:28:09;;;;;;;13.90;6.70;;;;;;;;;;104705;1276;61688;-33
2023/10/14 13:30:37;;;;;;;2.10;1.20;;;;;;;;;;104574;1279;61553;-35
2023/10/14 13:33:05;;;;;;;5.70;2.30;;;;;;;;;;104670;1276;61582;-33
2023/10/14 13:35:31;;;;;;;4.70;3.20;;;;;;;;;;104781;1277;61615;-34
2023/10/14 13:37:56;;;;;;;15.10;6.30;;;;;;;;;;104807;1277;61611;-36
2023/10/14 13:40:21;;;;;;;5.80;4.40;;;;;;;;;;104699;1276;61675;-33
2023/10/14 13:42:50;;;;;;;3.00;1.80;;;;;;;;;;104723;1276;61652;-36
2023/10/14 13:45:16;;;;;;;3.10;1.80;;;;;;;;;;104654;1277;61588;-32
2023/10/14 13:47:41;;;;;;;;;;;;;;;;;;104708;1275;61711;-34
2023/10/14 14:32:44;;;;;;;2.20;0.70;;;;;;;-100.01;19.20;19725.13;100757;1283;1600674;-35
2023/10/14 14:35:10;;;;;;;1.20;0.50;;;;;;;-128.00;-1.00;-1.00;100239;1288;1002772;-35
2023/10/14 14:37:36;;;;;;;1.20;0.50;;;;;;;-128.00;-1.00;-1.00;100398;1283;1003190;-35
2023/10/14 14:40:13;;;;;;;2.80;0.70;;;;;;;-128.00;-1.00;-1.00;100370;1283;1003381;-33
2023/10/14 14:42:45;;;;;;;2.00;0.60;;;;;;;-128.00;-1.00;-1.00;100315;1283;1055660;-35
2023/10/14 14:45:12;;;;;;;3.40;1.10;;;;;;;-128.00;-1.00;-1.00;100295;1283;1060289;-37
2023/10/14 14:47:38;;;;;;;3.70;1.20;;;;;;;-128.00;-1.00;-1.00;100391;1283;1004821;-33
2023/10/14 14:50:06;;;;;;;7.00;1.50;;;;;;;-128.00;-1.00;-1.00;100328;1283;1004185;-34
2023/10/14 14:52:32;;;;;;;4.30;1.90;;;;;;;-128.00;-1.00;-1.00;100332;1285;1003259;-33
2023/10/14 14:54:58;;;;;;;5.70;2.40;;;;;;;-128.00;-1.00;-1.00;100294;1285;1003943;-33
2023/10/14 14:57:24;;;;;;;5.90;2.00;;;;;;;-128.00;-1.00;-1.00;100442;1286;1002770;-33
2023/10/14 14:59:50;;;;;;;3.30;1.70;;;;;;;-128.00;-1.00;-1.00;100292;1286;1004469;-36
2023/10/14 15:02:15;;;;;;;3.30;1.70;;;;;;;-128.00;-1.00;-1.00;9205;1285;103915102;-36
2023/10/14 15:05:28;;;;;;;3.30;1.70;;;;;;;-128.00;-1.00;-1.00;43340;1285;79807711;-35
2023/10/14 15:16:47;;;;;;;3.30;1.70;;;;;;;-128.00;-1.00;-1.00;4;7504680;579193348;-36
2023/10/14 15:25:58;;;;;;;3.30;1.70;;;;;;;-128.00;-1.00;-1.00;2;543176941;543176941;-34
2023/10/14 15:36:03;;;;;;;3.30;1.70;;;;;;;-128.00;-1.00;-1.00;2;588196733;588196733;-36
2023/10/14 15:43:38;;;;;;;3.30;1.70;;;;;;;-128.00;-1.00;-1.00;2;444151145;444151145;-36
2023/10/14 15:49:50;;;;;;;3.30;1.70;;;;;;;-128.00;-1.00;-1.00;2;363120469;363120469;-34
2023/10/14 16:01:09;;;;;;;3.30;1.70;;;;;;;-128.00;-1.00;-1.00;4;7504261;579195398;-34
2023/10/14 16:10:20;;;;;;;3.30;1.70;;;;;;;-128.00;-1.00;-1.00;2;543182552;543182552;-34
2023/10/14 16:20:17;;;;;;;3.30;1.70;;;;;;;-128.00;-1.00;-1.00;2;588195539;588195539;-36
2023/10/14 16:27:50;;;;;;;3.30;1.70;;;;;;;-128.00;-1.00;-1.00;2;444151291;444151291;-36
2023/10/14 16:34:00;;;;;;;3.30;1.70;;;;;;;-128.00;-1.00;-1.00;2;363121807;363121807;-34
2023/10/14 16:45:19;;;;;;;3.30;1.70;;;;;;;-128.00;-1.00;-1.00;4;7505131;579193185;-34
2023/10/14 16:54:30;;;;;;;3.30;1.70;;;;;;;-128.00;-1.00;-1.00;2;543188095;543188095;-35
2023/10/14 17:04:26;;;;;;;3.30;1.70;;;;;;;-128.00;-1.00;-1.00;2;588198817;588198817;-35
2023/10/14 17:11:59;;;;;;;3.30;1.70;;;;;;;-128.00;-1.00;-1.00;2;444148792;444148792;-35
2023/10/14 17:18:11;;;;;;;3.30;1.70;;;;;;;-128.00;-1.00;-1.00;2;363125175;363125175;-34
2023/10/14 17:29:29;;;;;;;3.30;1.70;;;;;;;-128.00;-1.00;-1.00;4;7504878;579195231;-35
2023/10/14 17:38:41;;;;;;;3.30;1.70;;;;;;;-128.00;-1.00;-1.00;2;543185014;543185014;-33
2023/10/14 17:48:37;;;;;;;3.30;1.70;;;;;;;-128.00;-1.00;-1.00;2;588197117;588197117;-35
2023/10/14 17:56:11;;;;;;;3.30;1.70;;;;;;;-128.00;-1.00;-1.00;2;444149906;444149906;-34
2023/10/14 18:02:23;;;;;;;3.30;1.70;;;;;;;-128.00;-1.00;-1.00;2;363123551;363123551;-35
2023/10/14 18:13:42;;;;;;;3.30;1.70;;;;;;;-128.00;-1.00;-1.00;4;7504725;579196048;-34
2023/10/14 18:22:54;;;;;;;3.30;1.70;;;;;;;-128.00;-1.00;-1.00;2;543179071;543179071;-35
2023/10/14 18:32:51;;;;;;;3.30;1.70;;;;;;;-128.00;-1.00;-1.00;2;588202049;588202049;-35
2023/10/14 18:40:24;;;;;;;3.30;1.70;;;;;;;-128.00;-1.00;-1.00;2;444149744;444149744;-33
2023/10/14 18:46:35;;;;;;;3.30;1.70;;;;;;;-128.00;-1.00;-1.00;2;363120431;363120431;-35
2023/10/14 19:33:35;;;;;;;3.90;1.80;;;;;;;-100.32;19.20;19766.61;100513;1288;1599526;-34
2023/10/14 19:36:03;;;;;;;6.10;1.80;;;;;;;-128.00;-1.00;-1.00;99873;1288;1002819;-33
2023/10/14 19:38:30;;;;;;;8.00;2.20;;;;;;;-128.00;-1.00;-1.00;100074;1289;1046708;-34
2023/10/14 19:41:02;;;;;;;7.60;4.00;;;;;;;-128.00;-1.00;-1.00;100050;1284;1003235;-35
2023/10/14 19:48:37;;;;;;;7.60;4.00;;;;;;;-128.00;-1.00;-1.00;3171;1309;360130970;-34
2023/10/14 19:59:56;;;;;;;7.60;4.00;;;;;;;-128.00;-1.00;-1.00;4;7504979;579193658;-34
2023/10/14 20:09:09;;;;;;;7.60;4.00;;;;;;;-128.00;-1.00;-1.00;2;543180982;543180982;-33
2023/10/14 20:18:56;;;;;;;7.60;4.00;;;;;;;-128.00;-1.00;-1.00;2;579194954;579194954;-33
2023/10/14 20:26:29;;;;;;;7.60;4.00;;;;;;;-128.00;-1.00;-1.00;2;444155574;444155574;-35
2023/10/14 20:31:36;;;;;;;7.60;4.00;;;;;;;-128.00;-1.00;-1.00;2;302668473;302668473;-35
2023/10/14 20:41:10;;;;;;;7.60;4.00;;;;;;;-128.00;-1.00;-1.00;5;3003239;476711383;-35
2023/10/14 20:43:46;;;;;;;7.60;4.00;;;;;;;-128.00;-1.00;-1.00;725;1308;79848793;-33
2023/10/14 20:55:13;;;;;;;7.60;4.00;;;;;;;-128.00;-1.00;-1.00;8456;1308;62992882;-35
2023/10/14 21:05:17;;;;;;;7.60;4.00;;;;;;;-128.00;-1.00;-1.00;3;7505881;588205288;-34
2023/10/14 21:10:24;;;;;;;7.60;4.00;;;;;;;-128.00;-1.00;-1.00;2;299252944;299252944;-34
2023/10/14 21:16:24;;;;;;;7.60;4.00;;;;;;;-128.00;-1.00;-1.00;2;356998556;356998556;-35
2023/10/14 21:27:37;;;;;;;7.60;4.00;;;;;;;-128.00;-1.00;-1.00;5;3002877;576573758;-33
2023/10/14 21:38:07;;;;;;;7.60;4.00;;;;;;;-128.00;-1.00;-1.00;5;3003476;585203544;-35
2023/10/14 21:45:39;;;;;;;7.60;4.00;;;;;;;-128.00;-1.00;-1.00;2;444155304;444155304;-33
2023/10/14 21:51:52;;;;;;;7.60;4.00;;;;;;;-128.00;-1.00;-1.00;2;363125894;363125894;-35
2023/10/14 22:03:13;;;;;;;7.60;4.00;;;;;;;-128.00;-1.00;-1.00;4;7505200;579195377;-34
2023/10/14 22:12:28;;;;;;;7.60;4.00;;;;;;;-128.00;-1.00;-1.00;2;543192061;543192061;-33
2023/10/14 22:16:39;;;;;;;7.60;4.00;;;;;;;-128.00;-1.00;-1.00;2;249111446;249111446;-34
2023/10/14 22:22:31;;;;;;;7.60;4.00;;;;;;;-128.00;-1.00;-1.00;33147;1289;263625562;-34
2023/10/14 22:24:56;;;;;;;6.60;1.60;;;;;;;-128.00;-1.00;-1.00;97815;1291;2853645;-35
2023/10/14 22:27:21;;;;;;;6.40;1.80;;;;;;;-128.00;-1.00;-1.00;99912;1284;1003319;-33
2023/10/14 22:29:47;;;;;;;6.30;1.40;;;;;;;-128.00;-1.00;-1.00;99915;1285;1002833;-33
2023/10/14 22:32:12;;;;;;;11.00;1.40;;;;;;;-128.00;-1.00;-1.00;100040;1284;1003800;-36
2023/10/14 22:34:38;;;;;;;4.70;1.60;;;;;;;-128.00;-1.00;-1.00;99970;1284;1059371;-34
2023/10/14 22:37:05;;;;;;;3.70;1.40;;;;;;;-128.00;-1.00;-1.00;99929;1285;1003027;-34
2023/10/14 22:39:31;;;;;;;7.40;1.40;;;;;;;-128.00;-1.00;-1.00;99914;1284;1013102;-32
2023/10/14 22:41:56;;;;;;;8.20;1.30;;;;;;;-128.00;-1.00;-1.00;99966;1285;1003628;-34
2023/10/14 22:44:23;;;;;;;7.00;1.70;;;;;;;-128.00;-1.00;-1.00;100097;1284;1003507;-34
2023/10/14 22:46:48;;;;;;;10.10;1.40;;;;;;;-128.00;-1.00;-1.00;99957;1285;1056722;-33